Time;durP1;ratioP1;P1;durP2;ratioP2;P2;SDS_P1;SDS_P2;PMS_P1;PMS_P2;Temp;Humidity;BMP_temperature;BMP_pressure;BME280_temperature;BME280_humidity;BME280_pressure;Samples;Min_cycle;Max_cycle;Signal;HPM_P1;HPM_P2
2023/05/20 03:01:18;;;;;;;1.08;0.80;;;19.90;49.30;;;;;;5576661;23;45891;-59
2023/05/20 03:03:43;;;;;;;1.13;0.80;;;19.90;49.20;;;;;;4967540;28;46252;-58
2023/05/20 03:06:09;;;;;;;0.60;0.60;;;19.80;49.20;;;;;;5001534;28;45737;-59
2023/05/20 03:08:35;;;;;;;1.35;0.60;;;19.90;49.30;;;;;;4977164;28;46831;-58
2023/05/20 03:11:00;;;;;;;0.80;0.80;;;19.90;49.30;;;;;;4999219;28;45376;-59
2023/05/20 03:13:26;;;;;;;1.05;0.93;;;19.90;49.30;;;;;;4980481;28;44890;-57
2023/05/20 03:15:52;;;;;;;1.08;0.80;;;19.80;49.30;;;;;;4977901;28;45316;-56
2023/05/20 03:18:17;;;;;;;1.10;0.75;;;19.90;49.30;;;;;;4977494;28;46055;-57
2023/05/20 03:20:43;;;;;;;0.88;0.77;;;19.90;49.30;;;;;;4964965;28;45368;-58
2023/05/20 03:23:08;;;;;;;1.00;0.90;;;19.80;49.30;;;;;;4986182;28;45206;-58
2023/05/20 03:25:35;;;;;;;0.80;0.80;;;19.80;49.30;;;;;;4981947;28;45518;-58
2023/05/20 03:28:00;;;;;;;0.85;0.85;;;19.80;49.30;;;;;;4976186;28;45396;-58
2023/05/20 03:30:26;;;;;;;1.85;0.70;;;19.80;49.30;;;;;;4979737;28;45300;-56
2023/05/20 03:32:53;;;;;;;0.75;0.70;;;19.80;49.30;;;;;;4968860;28;45138;-56
2023/05/20 03:35:18;;;;;;;1.02;0.70;;;19.80;49.30;;;;;;4985275;28;45171;-63
2023/05/20 03:37:44;;;;;;;1.02;0.73;;;19.80;49.30;;;;;;4958792;28;48113;-57
2023/05/20 03:40:09;;;;;;;1.05;0.85;;;19.90;49.30;;;;;;4993438;28;45110;-60
2023/05/20 03:42:36;;;;;;;0.77;0.77;;;19.80;49.30;;;;;;4957384;28;45320;-58
2023/05/20 03:45:05;;;;;;;1.20;0.90;;;19.90;49.40;;;;;;4983954;28;45137;-63
2023/05/20 03:47:31;;;;;;;0.93;0.90;;;19.80;49.30;;;;;;4929846;28;45713;-58
2023/05/20 03:49:57;;;;;;;0.70;0.70;;;19.90;49.40;;;;;;4997508;28;45373;-58
2023/05/20 03:52:22;;;;;;;0.95;0.80;;;19.90;49.40;;;;;;4995988;28;45124;-57
2023/05/20 03:54:48;;;;;;;0.88;0.82;;;19.90;49.40;;;;;;4982164;28;45140;-57
2023/05/20 03:57:13;;;;;;;1.05;0.93;;;19.90;49.40;;;;;;4977294;28;45173;-57
2023/05/20 03:59:39;;;;;;;0.80;0.60;;;19.80;49.30;;;;;;5003290;28;45320;-58
2023/05/20 04:02:04;;;;;;;0.60;0.60;;;19.80;49.40;;;;;;4976787;28;45739;-57
2023/05/20 04:04:31;;;;;;;0.85;0.82;;;19.80;49.30;;;;;;5001071;28;45352;-59
2023/05/20 04:06:57;;;;;;;0.80;0.80;;;19.80;49.30;;;;;;5001072;28;46461;-57
2023/05/20 04:09:22;;;;;;;0.75;0.70;;;19.80;49.30;;;;;;4972524;28;44874;-56
2023/05/20 04:11:51;;;;;;;1.35;0.90;;;19.90;49.50;;;;;;5005031;28;45733;-54
2023/05/20 04:14:16;;;;;;;0.98;0.88;;;19.80;49.50;;;;;;4987688;28;45339;-52
2023/05/20 04:16:42;;;;;;;0.52;0.52;;;19.80;49.50;;;;;;4976046;28;45216;-53
2023/05/20 04:19:07;;;;;;;1.00;0.90;;;19.80;49.50;;;;;;5006193;28;45584;-56
2023/05/20 04:21:33;;;;;;;1.63;1.00;;;19.80;49.50;;;;;;4978187;28;45302;-55
2023/05/20 04:23:59;;;;;;;1.10;0.90;;;19.80;49.60;;;;;;4988828;28;45510;-55
2023/05/20 04:26:24;;;;;;;1.50;1.00;;;19.80;49.60;;;;;;4966268;28;47380;-57
2023/05/20 04:58:58;;;;;;;0.80;0.80;;;19.70;49.60;;;;;;4996651;28;45060;-57
2023/05/20 05:01:24;;;;;;;1.25;0.90;;;19.70;49.50;;;;;;4963735;28;45300;-56
2023/05/20 05:03:49;;;;;;;1.05;0.80;;;19.70;49.60;;;;;;4997629;23;45157;-55
2023/05/20 05:06:15;;;;;;;1.13;0.98;;;19.80;49.60;;;;;;4974342;23;45518;-55
2023/05/20 05:08:40;;;;;;;1.05;0.80;;;19.80;49.60;;;;;;4960984;28;45351;-57
2023/05/20 05:11:06;;;;;;;1.20;0.95;;;19.90;49.60;;;;;;4989483;23;45252;-58
2023/05/20 05:13:32;;;;;;;1.95;1.10;;;19.80;49.50;;;;;;4988948;28;45417;-58
2023/05/20 05:15:58;;;;;;;1.45;0.98;;;19.80;49.50;;;;;;4957492;28;45335;-59
2023/05/20 05:18:24;;;;;;;1.02;0.90;;;19.90;49.50;;;;;;4964835;28;45461;-56
2023/05/20 05:20:56;;;;;;;0.90;0.90;;;19.90;49.40;;;;;;4945763;28;44684;-58
2023/05/20 05:23:22;;;;;;;1.00;0.90;;;19.90;49.40;;;;;;4959459;28;45530;-58
2023/05/20 05:25:51;;;;;;;1.13;0.80;;;19.90;49.40;;;;;;4982144;23;45602;-58
2023/05/20 05:28:17;;;;;;;0.80;0.80;;;19.90;49.40;;;;;;4988808;28;45270;-58
2023/05/20 05:30:42;;;;;;;0.93;0.82;;;20.00;49.40;;;;;;4988258;23;46037;-57
2023/05/20 05:33:08;;;;;;;0.70;0.70;;;20.00;49.30;;;;;;4987263;28;45423;-58
2023/05/20 05:35:33;;;;;;;0.70;0.70;;;20.00;49.30;;;;;;4980515;28;45845;-59
2023/05/20 05:37:59;;;;;;;1.02;0.93;;;20.00;49.30;;;;;;4989901;28;45624;-59
2023/05/20 05:40:24;;;;;;;2.05;0.93;;;20.00;49.30;;;;;;4953127;28;45767;-59
2023/05/20 05:42:50;;;;;;;3.05;0.90;;;20.00;49.30;;;;;;4997018;28;45605;-56
2023/05/20 05:45:16;;;;;;;0.85;0.70;;;20.00;49.30;;;;;;4987320;28;46687;-57
2023/05/20 05:47:41;;;;;;;0.77;0.60;;;20.00;49.20;;;;;;4982986;28;45305;-58
2023/05/20 05:50:08;;;;;;;1.23;0.90;;;20.00;49.20;;;;;;4968598;28;45112;-60
2023/05/20 05:52:37;;;;;;;0.85;0.68;;;20.00;49.30;;;;;;5011933;28;44912;-58
2023/05/20 05:55:03;;;;;;;1.40;0.80;;;20.00;49.30;;;;;;4979238;28;47118;-59
2023/05/20 05:57:28;;;;;;;1.00;0.90;;;20.00;49.30;;;;;;4950212;28;45319;-60
2023/05/20 05:59:54;;;;;;;1.20;0.82;;;20.00;50.00;;;;;;5007338;28;45332;-59
2023/05/20 06:02:20;;;;;;;0.73;0.70;;;20.10;49.30;;;;;;4978175;28;45192;-60
2023/05/20 06:04:46;;;;;;;0.60;0.60;;;20.10;49.30;;;;;;4962001;28;47149;-59
2023/05/20 06:07:11;;;;;;;1.05;0.80;;;20.10;49.30;;;;;;4983177;28;45802;-58
2023/05/20 06:09:37;;;;;;;1.23;1.02;;;20.10;49.30;;;;;;4989135;28;45557;-57
2023/05/20 06:12:03;;;;;;;0.70;0.60;;;20.20;49.20;;;;;;4965820;28;45375;-58
2023/05/20 06:14:29;;;;;;;1.10;0.90;;;20.20;49.20;;;;;;5006805;28;45419;-58
2023/05/20 06:16:54;;;;;;;1.00;0.90;;;20.20;49.10;;;;;;4982396;28;45184;-59
2023/05/20 06:19:20;;;;;;;0.90;0.90;;;20.20;49.00;;;;;;5001671;28;46218;-58
2023/05/20 06:21:46;;;;;;;0.82;0.80;;;20.20;49.00;;;;;;5000011;28;45636;-58
2023/05/20 06:24:11;;;;;;;1.23;1.10;;;20.30;49.00;;;;;;4975116;28;45597;-60
2023/05/20 06:26:37;;;;;;;1.33;0.90;;;20.30;49.00;;;;;;4987255;28;45091;-59
2023/05/20 06:29:03;;;;;;;1.00;0.80;;;20.30;48.90;;;;;;4986599;28;45200;-57
2023/05/20 06:31:29;;;;;;;1.02;0.90;;;20.40;48.90;;;;;;4996553;28;45185;-60
2023/05/20 06:33:54;;;;;;;1.70;0.90;;;20.40;48.80;;;;;;4968713;28;45491;-60
2023/05/20 06:36:20;;;;;;;1.50;1.10;;;20.40;48.80;;;;;;4956724;28;44724;-60
2023/05/20 06:38:46;;;;;;;1.95;1.40;;;20.40;48.70;;;;;;4987058;28;45311;-59
2023/05/20 06:41:11;;;;;;;0.85;0.80;;;20.50;48.70;;;;;;4983835;28;45665;-59
2023/05/20 06:43:37;;;;;;;1.42;0.77;;;20.50;48.60;;;;;;5005339;28;46427;-58
2023/05/20 06:46:03;;;;;;;0.80;0.80;;;20.50;48.60;;;;;;5001075;28;44910;-60
2023/05/20 06:48:28;;;;;;;1.42;0.80;;;20.50;48.60;;;;;;4968749;28;45299;-59
2023/05/20 06:50:54;;;;;;;1.10;1.00;;;20.60;48.50;;;;;;4963521;28;45302;-61
2023/05/20 06:53:20;;;;;;;1.02;0.93;;;20.60;48.50;;;;;;4992831;28;47015;-59
2023/05/20 06:55:45;;;;;;;1.75;0.90;;;20.60;48.50;;;;;;4995589;28;46905;-60
2023/05/20 06:58:11;;;;;;;1.17;0.90;;;20.60;48.40;;;;;;5008947;28;44686;-59
2023/05/20 07:00:38;;;;;;;1.00;0.90;;;20.60;48.40;;;;;;4965097;28;44788;-61
2023/05/20 07:03:03;;;;;;;1.10;1.00;;;20.70;48.40;;;;;;5000400;28;45455;-60
2023/05/20 07:05:30;;;;;;;1.27;1.10;;;20.70;48.30;;;;;;4967113;28;46073;-59
2023/05/20 07:07:57;;;;;;;1.10;0.90;;;20.70;48.30;;;;;;4967583;28;60434;-60
2023/05/20 07:10:23;;;;;;;1.02;0.75;;;20.70;48.30;;;;;;4980274;28;45341;-59
2023/05/20 07:12:48;;;;;;;1.40;1.10;;;20.80;48.30;;;;;;4982532;28;45268;-59
2023/05/20 07:15:14;;;;;;;0.70;0.70;;;20.80;48.20;;;;;;4972273;28;45433;-59
2023/05/20 07:17:39;;;;;;;1.10;0.98;;;20.80;48.20;;;;;;4931302;28;46296;-59
2023/05/20 07:20:06;;;;;;;1.17;0.93;;;20.80;48.20;;;;;;4964300;28;45941;-60
2023/05/20 07:22:31;;;;;;;1.02;0.95;;;20.80;48.20;;;;;;4929465;28;45722;-58
2023/05/20 07:24:58;;;;;;;0.73;0.68;;;20.80;48.20;;;;;;4970987;28;44748;-59
2023/05/20 07:27:23;;;;;;;0.82;0.80;;;20.90;48.20;;;;;;4962607;28;45391;-58
2023/05/20 07:29:49;;;;;;;1.38;1.25;;;20.90;48.20;;;;;;4963399;28;45347;-58
2023/05/20 07:32:15;;;;;;;3.53;0.90;;;20.90;48.10;;;;;;4933354;28;45517;-58
2023/05/20 07:34:40;;;;;;;1.15;0.93;;;20.90;48.10;;;;;;4951565;28;46092;-57
2023/05/20 07:37:08;;;;;;;1.23;1.13;;;20.90;48.00;;;;;;4979530;28;44929;-57
2023/05/20 07:39:34;;;;;;;0.88;0.88;;;20.90;48.00;;;;;;4963362;28;46581;-58
2023/05/20 07:42:00;;;;;;;1.15;1.05;;;21.00;48.00;;;;;;4979936;28;45473;-61
2023/05/20 07:44:25;;;;;;;0.95;0.90;;;21.00;48.00;;;;;;4955069;28;46054;-55
2023/05/20 07:46:51;;;;;;;1.10;1.00;;;21.00;48.00;;;;;;4973190;28;45203;-57
2023/05/20 07:49:16;;;;;;;1.80;1.23;;;21.00;48.00;;;;;;4966422;28;45443;-57
2023/05/20 07:51:42;;;;;;;1.17;1.08;;;21.10;48.00;;;;;;4977536;28;46424;-56
2023/05/20 07:54:07;;;;;;;1.42;1.10;;;21.10;48.00;;;;;;4952903;28;45604;-59
2023/05/20 07:56:33;;;;;;;1.63;1.02;;;21.10;47.90;;;;;;4957864;28;44805;-57
2023/05/20 07:58:58;;;;;;;0.85;0.82;;;21.10;48.00;;;;;;4967822;28;45105;-61
2023/05/20 08:01:25;;;;;;;1.50;0.90;;;21.10;47.90;;;;;;4956131;28;45818;-58
2023/05/20 08:03:50;;;;;;;1.15;1.05;;;21.20;47.90;;;;;;4966441;28;45277;-58
2023/05/20 08:06:16;;;;;;;1.17;1.08;;;21.20;47.90;;;;;;4947318;28;45344;-55
2023/05/20 08:08:42;;;;;;;2.47;1.15;;;21.20;47.80;;;;;;4937857;28;45523;-60
2023/05/20 08:11:08;;;;;;;0.93;0.90;;;21.30;47.90;;;;;;4948162;28;45241;-57
2023/05/20 08:13:34;;;;;;;1.10;1.00;;;21.30;47.90;;;;;;4950406;28;45264;-59
2023/05/20 08:16:00;;;;;;;1.27;1.10;;;21.30;47.90;;;;;;4956939;28;45257;-61
2023/05/20 08:18:26;;;;;;;1.35;0.90;;;21.40;47.80;;;;;;4967302;28;45277;-58
2023/05/20 08:20:52;;;;;;;1.10;1.00;;;21.30;47.80;;;;;;4946698;28;46963;-56
2023/05/20 08:23:17;;;;;;;2.30;1.10;;;21.40;47.80;;;;;;4938586;28;45521;-60
2023/05/20 08:25:45;;;;;;;1.58;1.10;;;21.40;47.80;;;;;;4914562;28;45302;-57
2023/05/20 08:28:11;;;;;;;1.52;0.90;;;21.40;47.80;;;;;;4965685;28;44749;-59
2023/05/20 08:30:37;;;;;;;1.35;1.10;;;21.40;47.80;;;;;;4957597;28;46194;-56
2023/05/20 08:33:02;;;;;;;1.40;1.20;;;21.50;47.80;;;;;;4983944;28;45607;-58
2023/05/20 08:35:28;;;;;;;1.73;1.20;;;21.50;47.80;;;;;;4963059;28;45178;-58
2023/05/20 08:37:53;;;;;;;2.15;1.00;;;21.50;47.90;;;;;;4967743;28;45848;-58
2023/05/20 08:40:20;;;;;;;1.23;1.13;;;21.50;47.90;;;;;;4959835;28;45630;-58
2023/05/20 08:42:47;;;;;;;1.85;1.60;;;21.50;47.80;;;;;;4927101;28;46132;-60
2023/05/20 08:45:14;;;;;;;1.33;1.23;;;21.60;47.80;;;;;;4952598;28;45863;-62
2023/05/20 08:47:43;;;;;;;4.80;1.15;;;21.60;47.80;;;;;;4942870;28;45389;-57
2023/05/20 08:50:13;;;;;;;1.23;1.10;;;21.60;47.80;;;;;;4946571;28;45551;-62
2023/05/20 08:52:43;;;;;;;1.40;1.27;;;21.60;47.80;;;;;;4966903;28;45618;-57
2023/05/20 08:55:10;;;;;;;1.85;1.10;;;21.70;47.80;;;;;;4950168;28;45017;-66
2023/05/20 08:57:36;;;;;;;1.23;1.13;;;21.70;47.80;;;;;;4952753;28;46689;-58
2023/05/20 09:00:11;;;;;;;2.63;1.52;;;21.70;47.80;;;;;;4965962;28;46151;-66
2023/05/20 09:02:41;;;;;;;3.72;1.30;;;21.70;47.80;;;;;;4945542;28;45590;-59
2023/05/20 09:05:08;;;;;;;1.70;1.35;;;21.70;47.70;;;;;;4955883;28;46601;-59
2023/05/20 09:07:33;;;;;;;3.05;1.20;;;21.80;47.80;;;;;;4935919;28;45494;-57
2023/05/20 09:09:59;;;;;;;1.45;1.17;;;21.80;47.80;;;;;;4964378;28;47411;-60
2023/05/20 09:12:24;;;;;;;1.45;1.33;;;21.80;47.80;;;;;;4979474;28;45056;-59
2023/05/20 09:14:50;;;;;;;1.20;1.10;;;21.80;47.80;;;;;;4983754;28;45367;-58
2023/05/20 09:17:17;;;;;;;1.83;1.25;;;21.80;47.80;;;;;;4941682;28;45366;-59
2023/05/20 09:19:42;;;;;;;1.60;1.35;;;21.80;47.80;;;;;;4966549;28;45424;-58
2023/05/20 09:22:08;;;;;;;1.23;1.05;;;21.80;47.80;;;;;;4980287;28;46312;-54
2023/05/20 09:24:33;;;;;;;1.63;1.38;;;21.80;47.90;;;;;;4965526;28;46822;-60
2023/05/20 09:26:59;;;;;;;2.05;1.20;;;21.80;47.90;;;;;;4961118;28;45368;-61
2023/05/20 09:29:25;;;;;;;2.22;1.42;;;21.80;47.90;;;;;;4968513;28;47794;-60
2023/05/20 09:31:51;;;;;;;1.70;1.42;;;21.80;47.90;;;;;;4974297;28;46119;-60
2023/05/20 09:34:16;;;;;;;1.45;1.35;;;21.80;47.90;;;;;;4971167;28;44756;-60
2023/05/20 09:36:43;;;;;;;1.98;1.40;;;21.80;48.00;;;;;;4963611;28;45275;-60
2023/05/20 09:39:13;;;;;;;1.75;1.25;;;21.80;47.90;;;;;;4964143;28;46559;-61
2023/05/20 09:42:00;;;;;;;1.75;1.30;;;21.80;47.90;;;;;;4964836;28;45223;-61
2023/05/20 09:44:27;;;;;;;2.00;1.65;;;21.90;47.90;;;;;;4972170;28;44793;-61
2023/05/20 09:46:53;;;;;;;1.60;1.50;;;21.90;47.90;;;;;;4927366;28;45305;-61
2023/05/20 09:49:18;;;;;;;1.48;1.38;;;21.90;47.90;;;;;;4932790;28;47056;-61
2023/05/20 09:51:44;;;;;;;1.90;1.40;;;21.90;47.90;;;;;;4960422;23;46097;-59
2023/05/20 09:54:11;;;;;;;1.55;1.45;;;21.90;48.00;;;;;;4950582;28;45315;-58
2023/05/20 09:56:36;;;;;;;1.67;1.58;;;21.90;47.90;;;;;;4956899;23;45742;-59
2023/05/20 09:59:02;;;;;;;2.15;1.40;;;21.90;47.90;;;;;;4982236;28;46264;-58
2023/05/20 10:01:28;;;;;;;1.30;1.20;;;21.90;47.90;;;;;;4942906;23;44967;-60
2023/05/20 10:03:53;;;;;;;2.70;1.50;;;21.90;47.90;;;;;;4929009;28;45316;-59
2023/05/20 10:06:35;;;;;;;1.40;1.30;;;21.90;47.90;;;;;;4924482;28;44756;-58
2023/05/20 10:09:04;;;;;;;1.50;1.40;;;21.90;47.90;;;;;;4943652;28;46124;-58
2023/05/20 10:11:50;;;;;;;2.17;1.45;;;21.90;47.90;;;;;;4908798;28;45486;-57
2023/05/20 10:14:39;;;;;;;2.47;1.73;;;21.90;47.90;;;;;;4931970;28;44945;-59
2023/05/20 10:17:24;;;;;;;1.40;1.30;;;21.90;47.90;;;;;;4920634;28;45736;-58
2023/05/20 10:19:50;;;;;;;1.50;1.40;;;21.90;47.90;;;;;;4946973;28;45329;-57
2023/05/20 10:22:26;;;;;;;1.90;1.67;;;21.90;47.90;;;;;;4914072;28;44946;-58
2023/05/20 10:24:57;;;;;;;1.80;1.70;;;21.90;47.90;;;;;;4918312;28;45959;-58
2023/05/20 10:27:22;;;;;;;1.35;1.25;;;21.90;47.90;;;;;;4942403;28;45262;-59
2023/05/20 10:29:53;;;;;;;1.50;1.40;;;21.90;47.90;;;;;;4950890;28;45706;-58
2023/05/20 10:32:30;;;;;;;1.98;1.33;;;21.90;47.90;;;;;;4948852;23;45812;-58
2023/05/20 10:35:09;;;;;;;1.60;1.50;;;22.00;48.00;;;;;;4946076;28;45661;-59
2023/05/20 10:37:42;;;;;;;1.90;1.50;;;21.90;47.90;;;;;;4943499;28;45260;-58
2023/05/20 10:40:12;;;;;;;2.10;1.50;;;22.00;48.00;;;;;;4925779;28;45759;-56
2023/05/20 10:42:38;;;;;;;1.48;1.30;;;22.00;48.00;;;;;;4929339;28;45898;-59
2023/05/20 10:45:05;;;;;;;3.70;1.90;;;22.00;48.00;;;;;;4947870;28;45230;-62
2023/05/20 10:47:31;;;;;;;5.57;2.60;;;22.10;48.10;;;;;;4959632;28;45274;-61
2023/05/20 10:49:57;;;;;;;3.28;2.90;;;22.10;47.90;;;;;;4943788;28;45659;-62
2023/05/20 10:52:23;;;;;;;6.28;4.78;;;22.20;47.90;;;;;;4956173;28;45772;-59
2023/05/20 10:54:58;;;;;;;5.93;4.22;;;22.20;47.80;;;;;;4948774;28;46141;-59
2023/05/20 10:57:25;;;;;;;5.55;4.25;;;22.30;47.70;;;;;;4942551;28;45596;-59
2023/05/20 10:59:51;;;;;;;8.32;4.65;;;22.30;47.70;;;;;;4928122;28;46305;-59
2023/05/20 11:02:16;;;;;;;7.43;5.18;;;22.30;47.60;;;;;;4938510;28;45682;-57
2023/05/20 11:04:46;;;;;;;6.03;4.60;;;22.30;47.60;;;;;;4944749;28;46707;-58
2023/05/20 11:07:11;;;;;;;5.95;4.97;;;22.40;47.60;;;;;;4948083;28;44828;-58
2023/05/20 11:09:37;;;;;;;7.00;4.78;;;22.40;47.60;;;;;;4930518;28;45645;-59
2023/05/20 11:12:03;;;;;;;6.03;5.18;;;22.50;47.60;;;;;;4940635;28;46246;-58
2023/05/20 11:14:29;;;;;;;7.03;5.82;;;22.50;47.60;;;;;;4945751;28;45530;-60
2023/05/20 11:16:58;;;;;;;10.95;5.45;;;22.60;47.60;;;;;;4953647;28;45254;-58
2023/05/20 11:19:26;;;;;;;6.97;5.18;;;22.60;47.60;;;;;;4929888;28;45621;-59
2023/05/20 11:21:52;;;;;;;9.88;5.90;;;22.60;47.60;;;;;;4940754;28;46127;-60
2023/05/20 11:24:25;;;;;;;8.05;5.32;;;22.60;47.60;;;;;;4979162;28;44985;-59
2023/05/20 11:26:52;;;;;;;6.80;5.15;;;22.70;47.70;;;;;;4914595;28;45373;-57
2023/05/20 11:29:18;;;;;;;7.15;5.68;;;22.70;47.70;;;;;;4966206;28;45599;-59
2023/05/20 11:31:44;;;;;;;7.57;5.18;;;22.80;47.80;;;;;;4934675;28;45358;-58
2023/05/20 11:34:11;;;;;;;10.82;5.22;;;22.80;47.80;;;;;;4938572;28;45600;-57
2023/05/20 11:36:41;;;;;;;6.07;5.05;;;22.80;47.80;;;;;;4937061;28;44883;-61
2023/05/20 11:39:06;;;;;;;8.20;5.18;;;22.90;47.70;;;;;;4960528;28;46853;-58
2023/05/20 11:41:32;;;;;;;6.50;5.45;;;22.90;47.40;;;;;;4915308;28;44779;-57
2023/05/20 11:43:58;;;;;;;8.35;5.55;;;23.00;47.30;;;;;;4931960;28;45052;-59
2023/05/20 11:46:24;;;;;;;7.93;5.78;;;23.00;47.20;;;;;;4925086;28;45079;-57
2023/05/20 11:48:53;;;;;;;7.25;5.40;;;23.00;47.20;;;;;;4949609;28;45530;-64
2023/05/20 11:51:23;;;;;;;5.72;5.13;;;23.10;46.90;;;;;;4927965;28;45386;-56
2023/05/20 11:53:48;;;;;;;6.78;5.30;;;23.10;46.90;;;;;;4946915;28;45264;-54
2023/05/20 11:56:14;;;;;;;6.32;5.38;;;23.10;46.80;;;;;;4942086;28;45586;-58
2023/05/20 11:58:42;;;;;;;7.53;4.90;;;23.10;46.60;;;;;;4946925;28;46868;-59
2023/05/20 12:01:07;;;;;;;5.80;5.07;;;23.20;46.50;;;;;;4942133;23;45637;-57
2023/05/20 12:03:33;;;;;;;5.97;5.35;;;23.20;46.50;;;;;;4917088;28;45322;-56
2023/05/20 12:06:02;;;;;;;7.28;5.68;;;23.20;46.40;;;;;;4937463;28;45739;-61
2023/05/20 12:08:28;;;;;;;6.82;5.75;;;23.20;46.40;;;;;;4916193;28;47010;-57
2023/05/20 12:10:53;;;;;;;6.88;5.13;;;23.20;46.40;;;;;;4933303;28;45326;-54
2023/05/20 12:13:19;;;;;;;6.65;5.60;;;23.20;46.40;;;;;;4940088;28;45333;-59
2023/05/20 12:15:44;;;;;;;7.78;6.07;;;23.30;46.50;;;;;;4929568;28;45369;-58
2023/05/20 12:18:10;;;;;;;6.93;5.18;;;23.30;46.50;;;;;;4914077;28;46605;-58
2023/05/20 12:20:36;;;;;;;6.93;5.22;;;23.30;46.60;;;;;;4931822;28;45123;-58
2023/05/20 12:23:01;;;;;;;10.60;5.55;;;23.30;47.10;;;;;;4937161;28;45124;-58
2023/05/20 12:25:27;;;;;;;7.78;5.60;;;23.40;46.50;;;;;;4932303;28;45542;-60
2023/05/20 12:27:53;;;;;;;7.60;5.25;;;23.40;46.60;;;;;;4929281;28;45577;-60
2023/05/20 12:30:20;;;;;;;7.72;6.20;;;23.40;46.60;;;;;;4961492;28;45291;-66
2023/05/20 12:32:45;;;;;;;10.00;5.80;;;23.40;46.70;;;;;;4938335;28;46034;-60
2023/05/20 12:35:11;;;;;;;11.27;5.50;;;23.40;46.70;;;;;;4899565;28;45425;-60
2023/05/20 12:37:38;;;;;;;7.15;5.38;;;23.50;46.80;;;;;;4931675;28;45664;-57
2023/05/20 12:40:07;;;;;;;7.38;5.60;;;23.50;46.70;;;;;;4919789;28;45560;-62
2023/05/20 12:42:39;;;;;;;6.57;5.50;;;23.50;46.80;;;;;;4911911;28;45234;-57
2023/05/20 12:45:06;;;;;;;6.38;5.47;;;23.40;46.80;;;;;;4878856;28;45103;-61
2023/05/20 12:47:32;;;;;;;8.43;5.85;;;23.50;46.90;;;;;;4877046;28;45440;-59
2023/05/20 12:49:58;;;;;;;6.20;5.28;;;23.40;46.90;;;;;;4917653;28;45143;-59
2023/05/20 12:52:24;;;;;;;6.00;5.22;;;23.50;46.90;;;;;;4924593;28;45310;-57
2023/05/20 12:54:50;;;;;;;6.55;5.82;;;23.50;46.80;;;;;;4910546;28;45478;-59
2023/05/20 12:57:17;;;;;;;6.70;5.70;;;23.50;46.70;;;;;;4907293;28;45104;-58
2023/05/20 12:59:43;;;;;;;5.97;5.07;;;23.50;46.70;;;;;;4915889;28;45493;-61
2023/05/20 13:02:09;;;;;;;6.60;5.47;;;23.50;46.80;;;;;;4890491;28;45510;-58
2023/05/20 13:04:35;;;;;;;7.43;5.32;;;23.50;46.90;;;;;;4928017;28;45455;-58
2023/05/20 13:07:00;;;;;;;6.75;5.88;;;23.50;46.80;;;;;;4884653;28;47389;-59
2023/05/20 13:09:26;;;;;;;8.75;5.50;;;23.50;46.90;;;;;;4911099;28;45673;-58
2023/05/20 13:11:52;;;;;;;6.75;5.25;;;23.50;46.90;;;;;;4927510;28;44737;-56
2023/05/20 13:14:17;;;;;;;6.50;5.85;;;23.50;47.00;;;;;;4911148;28;45269;-57
2023/05/20 13:16:43;;;;;;;8.02;5.40;;;23.50;47.00;;;;;;4904709;28;45142;-59
2023/05/20 13:19:08;;;;;;;8.23;5.57;;;23.50;47.10;;;;;;4894311;28;45123;-59
2023/05/20 13:21:34;;;;;;;6.75;5.82;;;23.50;47.20;;;;;;4895315;28;45612;-58
2023/05/20 13:24:00;;;;;;;9.02;5.75;;;23.50;47.20;;;;;;4915692;28;45994;-58
2023/05/20 13:26:26;;;;;;;7.63;6.07;;;23.50;47.20;;;;;;4905599;28;45402;-59
2023/05/20 13:28:51;;;;;;;5.80;5.20;;;23.50;47.20;;;;;;4894722;28;45040;-61
2023/05/20 13:31:17;;;;;;;5.72;5.15;;;23.50;47.20;;;;;;4903322;28;45158;-57
2023/05/20 13:33:42;;;;;;;7.22;5.75;;;23.50;47.20;;;;;;4904160;28;45692;-60
2023/05/20 13:36:08;;;;;;;7.22;5.72;;;23.40;47.30;;;;;;4904197;28;46350;-60
2023/05/20 13:38:34;;;;;;;8.70;5.88;;;23.40;47.30;;;;;;4921996;28;45786;-58
2023/05/20 13:41:00;;;;;;;9.38;5.57;;;23.40;47.30;;;;;;4901744;28;45570;-59
2023/05/20 13:43:27;;;;;;;8.32;5.22;;;23.50;47.40;;;;;;4946014;28;45462;-60
2023/05/20 13:45:53;;;;;;;7.68;5.32;;;23.40;47.40;;;;;;4944016;28;46796;-59
2023/05/20 13:48:18;;;;;;;8.25;4.97;;;23.40;47.40;;;;;;4944234;28;45833;-59
2023/05/20 13:50:44;;;;;;;7.78;5.82;;;23.40;47.50;;;;;;4944767;28;45094;-57
2023/05/20 13:53:12;;;;;;;9.13;5.68;;;23.40;47.50;;;;;;4949866;28;44842;-57
2023/05/20 13:55:38;;;;;;;6.13;4.95;;;23.40;47.50;;;;;;4945123;28;45609;-57
2023/05/20 13:58:07;;;;;;;7.10;6.20;;;23.40;47.50;;;;;;4936914;28;44734;-59
2023/05/20 14:00:34;;;;;;;7.72;6.00;;;23.40;47.60;;;;;;4942798;28;45650;-59
2023/05/20 14:03:00;;;;;;;10.32;6.18;;;23.40;47.60;;;;;;4945542;28;45327;-60
2023/05/20 14:05:26;;;;;;;12.50;5.88;;;23.40;47.60;;;;;;4959377;28;45660;-56
2023/05/20 14:07:52;;;;;;;8.00;5.97;;;23.40;47.60;;;;;;4943748;28;45434;-60
2023/05/20 14:10:17;;;;;;;10.10;5.70;;;23.40;47.60;;;;;;4943766;28;45664;-59
2023/05/20 14:12:46;;;;;;;5.72;5.15;;;23.40;47.60;;;;;;4954875;28;45372;-60
2023/05/20 14:15:12;;;;;;;8.43;5.10;;;23.40;47.60;;;;;;4946775;28;45502;-54
2023/05/20 14:17:38;;;;;;;7.05;5.93;;;23.40;47.70;;;;;;4945883;28;45253;-59
2023/05/20 14:20:05;;;;;;;6.55;5.82;;;23.40;47.60;;;;;;4944251;28;45222;-63
2023/05/20 14:22:30;;;;;;;6.03;5.43;;;23.50;47.70;;;;;;4919314;28;44745;-60
2023/05/20 14:24:56;;;;;;;6.45;5.38;;;23.40;47.70;;;;;;4930453;28;45490;-59
2023/05/20 14:27:22;;;;;;;6.90;5.80;;;23.40;47.70;;;;;;4941658;28;45359;-59
2023/05/20 14:29:47;;;;;;;6.18;5.57;;;23.40;47.70;;;;;;4947425;28;45249;-60
2023/05/20 14:32:13;;;;;;;6.00;5.38;;;23.40;47.80;;;;;;4937908;28;44866;-57
2023/05/20 14:34:39;;;;;;;7.13;6.00;;;23.40;47.80;;;;;;4945745;28;45759;-58
2023/05/20 14:37:08;;;;;;;6.68;5.50;;;23.40;47.90;;;;;;4941806;28;45236;-59
2023/05/20 14:39:35;;;;;;;6.85;5.82;;;23.40;47.90;;;;;;4944801;28;45712;-59
2023/05/20 14:42:01;;;;;;;8.70;5.88;;;23.40;48.00;;;;;;4945072;28;45437;-60
2023/05/20 14:44:27;;;;;;;5.93;5.30;;;23.40;47.90;;;;;;4934124;28;45354;-57
2023/05/20 14:46:53;;;;;;;6.50;5.70;;;23.40;48.00;;;;;;4944167;28;46848;-60
2023/05/20 14:49:18;;;;;;;6.20;5.20;;;23.40;48.00;;;;;;4930917;28;45331;-59
2023/05/20 14:51:44;;;;;;;7.03;5.43;;;23.40;48.00;;;;;;4951258;28;46171;-59
2023/05/20 14:54:10;;;;;;;5.78;5.03;;;23.40;48.10;;;;;;4931536;28;46774;-61
2023/05/20 14:56:35;;;;;;;8.82;5.53;;;23.40;48.10;;;;;;4924261;28;45134;-59
2023/05/20 14:59:01;;;;;;;8.38;5.55;;;23.40;48.10;;;;;;4949929;28;45250;-59
2023/05/20 15:01:26;;;;;;;5.95;5.35;;;23.40;48.10;;;;;;4940041;28;45354;-58
2023/05/20 15:03:52;;;;;;;7.05;5.45;;;23.40;48.20;;;;;;4946799;28;45380;-60
2023/05/20 15:06:17;;;;;;;7.13;5.20;;;23.40;48.20;;;;;;4943237;28;45364;-60
2023/05/20 15:08:43;;;;;;;6.00;5.38;;;23.40;48.20;;;;;;4944584;28;45214;-60
2023/05/20 15:11:08;;;;;;;5.78;4.97;;;23.40;48.20;;;;;;4955754;28;45340;-59
2023/05/20 15:13:34;;;;;;;5.95;5.40;;;23.40;48.20;;;;;;4950422;28;45447;-59
2023/05/20 15:16:00;;;;;;;5.32;4.43;;;23.40;48.30;;;;;;4946531;28;45559;-62
2023/05/20 15:18:25;;;;;;;5.68;5.10;;;23.40;48.30;;;;;;4950791;28;45332;-60
2023/05/20 15:20:51;;;;;;;7.93;5.45;;;23.30;48.30;;;;;;4947232;28;45464;-61
2023/05/20 15:23:16;;;;;;;5.32;4.82;;;23.40;48.40;;;;;;4950179;28;45499;-57
2023/05/20 15:25:42;;;;;;;5.95;5.28;;;23.40;48.30;;;;;;4936348;28;45299;-61
2023/05/20 15:28:07;;;;;;;5.15;4.55;;;23.40;48.40;;;;;;4946988;28;46395;-60
2023/05/20 15:30:33;;;;;;;7.13;4.88;;;23.40;48.40;;;;;;4924198;28;45082;-59
2023/05/20 15:32:58;;;;;;;6.28;5.00;;;23.40;48.40;;;;;;4945201;28;45395;-59
2023/05/20 15:35:24;;;;;;;5.57;4.88;;;23.40;48.40;;;;;;4943011;28;45853;-60
2023/05/20 15:37:50;;;;;;;6.95;4.93;;;23.40;48.40;;;;;;4941565;28;45197;-59
2023/05/20 15:40:15;;;;;;;6.38;4.90;;;23.40;48.40;;;;;;4951696;28;45814;-59
2023/05/20 15:42:41;;;;;;;6.13;5.13;;;23.40;48.40;;;;;;4907913;28;47156;-60
2023/05/20 15:45:08;;;;;;;6.57;5.30;;;23.50;48.50;;;;;;4941759;28;45220;-62
2023/05/20 15:47:37;;;;;;;6.07;5.22;;;23.40;48.40;;;;;;4910375;28;45424;-58
2023/05/20 15:50:07;;;;;;;5.60;5.00;;;23.40;48.40;;;;;;4915246;28;45448;-64
2023/05/20 15:52:32;;;;;;;6.03;5.43;;;23.40;48.40;;;;;;4893173;28;45475;-58
2023/05/20 15:54:58;;;;;;;6.10;5.18;;;23.40;48.50;;;;;;4944484;28;46097;-60
2023/05/20 15:57:23;;;;;;;6.05;5.45;;;23.40;48.50;;;;;;4942304;28;45891;-60
2023/05/20 15:59:49;;;;;;;7.88;5.38;;;23.50;48.60;;;;;;4949199;28;44936;-56
2023/05/20 16:02:14;;;;;;;7.05;5.00;;;23.40;48.50;;;;;;4901131;28;47281;-59
2023/05/20 16:04:40;;;;;;;5.47;4.97;;;23.50;48.60;;;;;;4947912;28;45667;-60
2023/05/20 16:07:06;;;;;;;4.95;4.45;;;23.50;48.60;;;;;;4921565;28;45190;-59
2023/05/20 16:09:31;;;;;;;6.88;5.30;;;23.50;48.60;;;;;;4941738;28;45252;-61
2023/05/20 16:11:57;;;;;;;5.65;5.03;;;23.50;48.60;;;;;;4923222;28;46299;-58